WetterOnline ( https://www.wetteronline.at )

Wetter aktuell Finsterwalde

Aktuelles Wetter: Kirchhain (100m)

6-stündlich | Neueste Meldungen
Ortszeit Temperatur Wetter
Sa, 04.07. 8:00 18.4° C wolkenlos
Sa, 04.07. 2:00 13.5° C leicht bewölkt
Fr, 03.07. 20:00 22.1° C wolkig
Fr, 03.07. 14:00 21.6° C bewölkt
Fr, 03.07. 8:00 17.0° C wolkig
Fr, 03.07. 2:00 16.7° C bewölkt
Do, 02.07. 20:00 24.0° C wolkig
Do, 02.07. 14:00 25.5° C wolkig
Ortszeit Temperatur Wetter
Sa, 04.07. 11:30 23.1° C wolkig
Sa, 04.07. 11:20 23.1° C wolkig
Sa, 04.07. 11:10 23.2° C leicht bewölkt
Sa, 04.07. 11:00 22.8° C wolkig
Sa, 04.07. 10:50 22.8° C wolkig
Sa, 04.07. 10:40 21.5° C wolkig
Sa, 04.07. 10:30 21.6° C wolkig
Sa, 04.07. 10:00 22.0° C wolkenlos
Sa, 04.07. 9:30 21.3° C wolkenlos
Sa, 04.07. 9:00 20.5° C wolkenlos
Sa, 04.07. 8:30 19.6° C wolkenlos
Ortszeit Relative Feuchte Sichtweite
Sa, 04.07. 8:00 63% >70 km
Sa, 04.07. 2:00 85% 40 km
Fr, 03.07. 20:00 45% 60 km
Fr, 03.07. 14:00 46% 40 km
Fr, 03.07. 8:00 78% 40 km
Fr, 03.07. 2:00 87% 45 km
Do, 02.07. 20:00 51% 65 km
Do, 02.07. 14:00 45% 50 km
Ortszeit Relative Feuchte Sichtweite
Sa, 04.07. 11:30 43% 55 km
Sa, 04.07. 11:20 43% -
Sa, 04.07. 11:10 45% -
Sa, 04.07. 11:00 47% 55 km
Sa, 04.07. 10:50 47% -
Sa, 04.07. 10:40 50% -
Sa, 04.07. 10:30 52% >70 km
Sa, 04.07. 10:00 53% 60 km
Sa, 04.07. 9:30 54% >70 km
Sa, 04.07. 9:00 57% >70 km
Sa, 04.07. 8:30 58% 50 km
Ortszeit Niederschlagsmenge Niederschlagsart
Sa, 04.07. 8:00 0.0 l/m2 in 12 Std. -
Sa, 04.07. 2:00 0.0 l/m2 in 6 Std. -
Fr, 03.07. 20:00 0.0 l/m2 in 12 Std. -
Fr, 03.07. 14:00 0.0 l/m2 in 6 Std. -
Fr, 03.07. 8:00 0.7 l/m2 in 12 Std. -
Fr, 03.07. 2:00 0.7 l/m2 in 6 Std. Regen
Do, 02.07. 20:00 0.2 l/m2 in 12 Std. -
Do, 02.07. 14:00 0.2 l/m2 in 6 Std. Regen
Ortszeit Niederschlagsmenge Niederschlagsart
Sa, 04.07. 11:30 0.0 l/m2 in 1 Std. -
Sa, 04.07. 11:20 keine Meldung -
Sa, 04.07. 11:10 keine Meldung -
Sa, 04.07. 11:00 0.0 l/m2 in 1 Std. -
Sa, 04.07. 10:50 keine Meldung -
Sa, 04.07. 10:40 keine Meldung -
Sa, 04.07. 10:30 0.0 l/m2 in 1 Std. -
Sa, 04.07. 10:00 0.0 l/m2 in 1 Std. -
Sa, 04.07. 9:30 0.0 l/m2 in 1 Std. -
Sa, 04.07. 9:00 0.0 l/m2 in 1 Std. -
Sa, 04.07. 8:30 0.0 l/m2 in 1 Std. -
Ortszeit Stärke Spitze Richtung
km/h Bft. km/h Grad Sektor
Sa, 04.07. 8:00 13 3 20 210° SW
Sa, 04.07. 2:00 7 2 14 180° S
Fr, 03.07. 20:00 14 3 36 260° W
Fr, 03.07. 14:00 24 4 37 280° W
Fr, 03.07. 8:00 17 3 28 290° W
Fr, 03.07. 2:00 7 2 29 240° SW
Do, 02.07. 20:00 11 2 36 350° N
Do, 02.07. 14:00 18 3 36 250° W
Ortszeit Stärke Spitze Richtung
km/h Bft. km/h Grad Sektor
Sa, 04.07. 11:30 24 4 31 260° W
Sa, 04.07. 11:20 24 4 - 260° W
Sa, 04.07. 11:10 20 4 - 230° SW
Sa, 04.07. 11:00 22 4 36 250° W
Sa, 04.07. 10:50 22 4 - 250° W
Sa, 04.07. 10:40 22 4 - 260° W
Sa, 04.07. 10:30 18 3 32 230° SW
Sa, 04.07. 10:00 19 3 30 250° W
Sa, 04.07. 9:30 14 3 25 240° SW
Sa, 04.07. 9:00 14 3 22 240° SW
Sa, 04.07. 8:30 11 2 20 220° SW
Ortszeit Untergrenze Bedeckung Gattung
total tief tief mittel hoch
Sa, 04.07. 8:00 - 0/8 0/8 - - -
Sa, 04.07. 2:00 8100 m 6/8 0/8 - - -
Fr, 03.07. 20:00 2400 m 5/8 5/8 - - -
Fr, 03.07. 14:00 1350 m 7/8 7/8 - - -
Fr, 03.07. 8:00 2400 m 7/8 1/8 - - -
Fr, 03.07. 2:00 1500 m 8/8 5/8 - - -
Do, 02.07. 20:00 3600 m 8/8 3/8 - - -
Do, 02.07. 14:00 1500 m 6/8 5/8 - - -
Ortszeit Bedeckungsgrad in Achtel und Wolkenuntergrenze
Sa, 04.07. 11:30 5(1500m) 5(10500m)
Sa, 04.07. 11:20 5(1500m) 5(10500m)
Sa, 04.07. 11:10 4(1500m)
Sa, 04.07. 11:00 4(1410m) 5(1500m) 5(10500m)
Sa, 04.07. 10:50 4(1410m) 5(1500m) 5(10500m)
Sa, 04.07. 10:40 4(1380m) 5(1500m) 7(10500m)
Sa, 04.07. 10:30 1(1320m) 7(10500m) 7(10500m)
Sa, 04.07. 10:00 3(10500m)
Sa, 04.07. 9:30 keine Wolken
Sa, 04.07. 9:00 keine Wolken
Sa, 04.07. 8:30 keine Wolken
Ortszeit Luftdruck NN (hPa) Tendenz (hPa in 3 Std.)
Sa, 04.07. 8:00 1017 - 0,1
Sa, 04.07. 2:00 1018 + 0,4
Fr, 03.07. 20:00 1016 + 0,2
Fr, 03.07. 14:00 1016 + 0,6
Fr, 03.07. 8:00 1015 + 1,6
Fr, 03.07. 2:00 1012 + 0,3
Do, 02.07. 20:00 1009 + 0,1
Do, 02.07. 14:00 1010 - 0,8
Ortszeit Luftdruck NN (hPa) Tendenz (hPa in 3 Std.)
Sa, 04.07. 11:30 1016 - 0,4
Sa, 04.07. 11:20 1016 keine Meldung
Sa, 04.07. 11:10 1016 keine Meldung
Sa, 04.07. 11:00 1016 - 0,2
Sa, 04.07. 10:50 1016 keine Meldung
Sa, 04.07. 10:40 1017 keine Meldung
Sa, 04.07. 10:30 1017 - 0,1
Sa, 04.07. 10:00 1017 + 0,1
Sa, 04.07. 9:30 1017 - 0,1
Sa, 04.07. 9:00 1017 + 0,1
Sa, 04.07. 8:30 1017 + 0,1
Ortszeit Schneehöhe (cm)
Sa, 04.07. 8:00 -
Sa, 04.07. 2:00 -
Fr, 03.07. 20:00 -
Fr, 03.07. 14:00 -
Fr, 03.07. 8:00 -
Fr, 03.07. 2:00 -
Do, 02.07. 20:00 -
Do, 02.07. 14:00 -
Ortszeit Schneehöhe (cm)
Sa, 04.07. 11:30 -
Sa, 04.07. 11:20 -
Sa, 04.07. 11:10 -
Sa, 04.07. 11:00 -
Sa, 04.07. 10:50 -
Sa, 04.07. 10:40 -
Sa, 04.07. 10:30 -
Sa, 04.07. 10:00 -
Sa, 04.07. 9:30 -
Sa, 04.07. 9:00 -
Sa, 04.07. 8:30 -
Link zu dieser Seite / Seite empfehlen

Das Wetter in ...